createdAt,value
2017-12-08T00:01:37.216Z,71.12
2017-12-08T00:04:08.957Z,71.12
2017-12-08T00:06:40.948Z,71.19
2017-12-08T00:09:13.655Z,71.45
2017-12-08T00:11:47.745Z,71.71
2017-12-08T00:14:20.124Z,71.85
2017-12-08T00:16:53.948Z,71.85
2017-12-08T00:19:26.217Z,71.95
2017-12-08T00:21:59.113Z,72.08
2017-12-08T00:24:30.752Z,72.23
2017-12-08T00:27:02.368Z,72.45
2017-12-08T00:29:34.183Z,72.17
2017-12-08T00:32:08.443Z,72.02
2017-12-08T00:34:40.870Z,72.06
2017-12-08T00:37:12.527Z,72.01
2017-12-08T00:39:43.265Z,71.44
2017-12-08T00:42:13.504Z,71.59
2017-12-08T00:44:44.429Z,71.49
2017-12-08T00:47:15.884Z,71.68
2017-12-08T00:49:46.835Z,71.67
2017-12-08T00:52:17.737Z,71.76
2017-12-08T00:54:49.393Z,71.93
2017-12-08T00:57:21.074Z,71.65
2017-12-08T00:59:51.468Z,71.57
2017-12-08T01:02:23.458Z,71.71
2017-12-08T01:04:56.091Z,71.81
2017-12-08T01:07:27.453Z,71.68
2017-12-08T01:09:58.099Z,71.94
2017-12-08T01:12:28.505Z,71.83
2017-12-08T01:14:58.882Z,71.96
2017-12-08T01:17:30.031Z,72.10
2017-12-08T01:20:00.376Z,72.09
2017-12-08T01:22:30.914Z,71.79
2017-12-08T01:25:03.208Z,71.89
2017-12-08T01:27:33.961Z,71.93
2017-12-08T01:30:07.225Z,71.67
2017-12-08T01:32:38.089Z,71.87
2017-12-08T01:35:09.360Z,71.39
2017-12-08T01:37:40.832Z,70.76
2017-12-08T01:40:12.011Z,71.34
2017-12-08T01:42:42.388Z,70.82
2017-12-08T01:45:15.384Z,70.52
2017-12-08T01:47:45.686Z,70.36
2017-12-08T01:50:16.505Z,69.92
2017-12-08T01:52:47.050Z,69.98
2017-12-08T01:55:17.594Z,69.78
2017-12-08T01:57:49.179Z,69.85
2017-12-08T02:00:22.665Z,69.99
2017-12-08T02:02:53.612Z,69.99
2017-12-08T02:05:25.036Z,70.26
2017-12-08T02:07:56.131Z,69.90
2017-12-08T02:10:26.697Z,70.19
2017-12-08T02:12:57.688Z,70.33
2017-12-08T02:15:28.442Z,70.20
2017-12-08T02:17:59.193Z,70.13
2017-12-08T02:20:30.400Z,70.20
2017-12-08T02:23:01.714Z,70.23
2017-12-08T02:25:33.451Z,70.33
2017-12-08T02:28:04.372Z,70.44
2017-12-08T02:30:35.063Z,70.72
2017-12-08T02:33:05.602Z,70.48
2017-12-08T02:35:36.039Z,70.37
2017-12-08T02:38:06.372Z,70.44
2017-12-08T02:40:36.834Z,70.87
2017-12-08T02:43:07.186Z,70.67
2017-12-08T02:45:39.786Z,70.62
2017-12-08T02:48:10.252Z,70.78
2017-12-08T02:50:40.564Z,70.73
2017-12-08T02:53:10.962Z,70.58
2017-12-08T02:55:41.184Z,70.56
2017-12-08T02:58:11.506Z,69.88
2017-12-08T03:00:42.568Z,69.46
2017-12-08T03:03:12.909Z,69.59
2017-12-08T03:05:43.606Z,70.55
2017-12-08T03:08:16.951Z,70.67
2017-12-08T03:10:47.290Z,69.03
2017-12-08T03:13:17.527Z,68.73
2017-12-08T03:15:47.883Z,68.88
2017-12-08T03:18:19.075Z,69.08
2017-12-08T03:20:57.460Z,69.30
2017-12-08T03:23:28.455Z,69.82
2017-12-08T03:25:58.947Z,69.48
2017-12-08T03:28:29.212Z,69.32
2017-12-08T03:30:59.373Z,69.59
2017-12-08T03:33:29.749Z,69.49
2017-12-08T03:36:00.353Z,69.45
2017-12-08T03:38:30.801Z,69.57
2017-12-08T03:41:01.929Z,69.83
2017-12-08T03:43:32.172Z,69.87
2017-12-08T03:46:02.864Z,69.94
2017-12-08T03:48:33.109Z,70.15
2017-12-08T03:51:03.485Z,70.19
2017-12-08T03:53:33.654Z,70.42
2017-12-08T03:56:05.660Z,70.67
2017-12-08T03:58:36.047Z,70.56
2017-12-08T04:01:06.799Z,70.38
2017-12-08T04:03:37.972Z,70.34
2017-12-08T04:06:08.343Z,69.99
2017-12-08T04:08:38.550Z,70.24
2017-12-08T04:11:09.188Z,70.31
2017-12-08T04:13:39.510Z,70.01
2017-12-08T04:16:10.349Z,69.97
2017-12-08T04:18:41.589Z,69.77
2017-12-08T04:21:12.727Z,69.79
2017-12-08T04:23:43.778Z,69.56
2017-12-08T04:26:14.098Z,69.94
2017-12-08T04:28:44.990Z,69.83
2017-12-08T04:31:16.302Z,70.14
2017-12-08T04:33:47.599Z,70.03
2017-12-08T04:36:19.839Z,70.25
2017-12-08T04:38:50.180Z,70.18
2017-12-08T04:41:20.503Z,69.91
2017-12-08T04:43:50.786Z,70.03
2017-12-08T04:46:22.779Z,69.63
2017-12-08T04:48:54.856Z,69.38
2017-12-08T04:51:25.518Z,69.33
2017-12-08T04:53:56.813Z,68.28
2017-12-08T04:56:27.083Z,68.12
2017-12-08T04:58:57.296Z,68.25
2017-12-08T05:01:27.845Z,68.18
2017-12-08T05:03:58.039Z,68.14
2017-12-08T05:06:28.846Z,67.85
2017-12-08T05:08:59.095Z,67.60
2017-12-08T05:11:30.032Z,67.54
2017-12-08T05:14:00.384Z,67.64
2017-12-08T05:16:32.277Z,67.56
2017-12-08T05:19:02.714Z,67.87
2017-12-08T05:21:36.744Z,67.60
2017-12-08T05:24:07.069Z,67.54
2017-12-08T05:26:37.622Z,67.40
2017-12-08T05:29:08.660Z,67.41
2017-12-08T05:31:39.758Z,67.18
2017-12-08T05:34:11.307Z,67.15
2017-12-08T05:36:43.350Z,67.00
2017-12-08T05:39:14.195Z,67.03
2017-12-08T05:41:45.184Z,67.17
2017-12-08T05:44:16.124Z,67.19
2017-12-08T05:46:48.114Z,67.55
2017-12-08T05:49:20.476Z,67.57
2017-12-08T05:51:51.535Z,67.64
2017-12-08T05:54:21.810Z,67.42
2017-12-08T05:56:55.114Z,67.54
2017-12-08T05:59:25.632Z,67.57
2017-12-08T06:01:57.119Z,67.48
2017-12-08T06:04:27.474Z,67.62
2017-12-08T06:06:57.722Z,67.90
2017-12-08T06:09:28.185Z,67.44
2017-12-08T06:11:58.756Z,67.52
2017-12-08T06:14:29.991Z,67.53
2017-12-08T06:17:01.373Z,67.34
2017-12-08T06:19:31.918Z,67.28
2017-12-08T06:22:02.117Z,67.63
2017-12-08T06:24:36.916Z,67.55
2017-12-08T06:27:10.421Z,67.41
2017-12-08T06:29:43.829Z,67.68
2017-12-08T06:32:22.977Z,67.85
2017-12-08T06:34:53.780Z,67.88
2017-12-08T06:37:24.514Z,67.88
2017-12-08T06:39:55.409Z,67.84
2017-12-08T06:42:26.257Z,67.89
2017-12-08T06:44:56.480Z,67.93
2017-12-08T06:47:28.245Z,67.86
2017-12-08T06:49:58.731Z,68.05
2017-12-08T06:52:29.795Z,67.84
2017-12-08T06:55:02.248Z,67.87
2017-12-08T06:57:49.465Z,67.73
2017-12-08T07:00:21.729Z,67.39
2017-12-08T07:03:02.321Z,67.52
2017-12-08T07:05:33.110Z,66.97
2017-12-08T07:08:03.802Z,67.20
2017-12-08T07:10:34.912Z,67.89
2017-12-08T07:13:05.916Z,67.61
2017-12-08T07:15:36.414Z,68.15
2017-12-08T07:18:07.722Z,67.60
2017-12-08T07:20:38.304Z,67.34
2017-12-08T07:23:08.518Z,67.41
2017-12-08T07:25:39.194Z,66.94
2017-12-08T07:28:09.849Z,66.81
2017-12-08T07:30:40.527Z,65.31
2017-12-08T07:33:11.547Z,65.76
2017-12-08T07:35:41.997Z,65.65
2017-12-08T07:38:12.450Z,65.88
2017-12-08T07:40:43.882Z,66.86
2017-12-08T07:43:15.987Z,67.44
2017-12-08T07:45:47.517Z,68.78
2017-12-08T07:48:18.376Z,69.31
2017-12-08T07:50:55.519Z,69.22
2017-12-08T07:53:27.676Z,68.62
2017-12-08T07:55:59.135Z,68.90
2017-12-08T07:58:30.638Z,68.79
2017-12-08T08:01:02.209Z,69.02
2017-12-08T08:03:32.863Z,69.58
2017-12-08T08:06:03.714Z,69.69
2017-12-08T08:08:33.993Z,69.70
2017-12-08T08:11:06.917Z,69.69
2017-12-08T08:13:37.636Z,69.46
2017-12-08T08:16:11.928Z,69.45
2017-12-08T08:18:45.754Z,69.16
2017-12-08T08:21:17.185Z,69.58
2017-12-08T08:23:48.465Z,69.99
2017-12-08T08:26:18.770Z,70.25
2017-12-08T08:28:52.349Z,70.17
2017-12-08T08:31:24.334Z,70.03
2017-12-08T08:33:56.125Z,69.79
2017-12-08T08:36:26.737Z,69.45
2017-12-08T08:38:58.269Z,69.04
2017-12-08T08:41:29.124Z,68.54
2017-12-08T08:44:00.583Z,68.26
2017-12-08T08:46:30.880Z,68.15
2017-12-08T08:49:02.329Z,67.80
2017-12-08T08:51:33.563Z,68.04
2017-12-08T08:54:04.082Z,68.48
2017-12-08T08:56:36.575Z,68.47
2017-12-08T08:59:06.983Z,68.48
2017-12-08T09:01:56.011Z,68.16
2017-12-08T09:04:31.602Z,68.08
2017-12-08T09:07:02.498Z,67.93
2017-12-08T09:09:33.614Z,67.96
2017-12-08T09:12:06.885Z,67.80
2017-12-08T09:14:38.673Z,66.90
2017-12-08T09:17:09.218Z,66.60
2017-12-08T09:19:55.405Z,66.06
2017-12-08T09:22:26.062Z,65.94
2017-12-08T09:24:57.197Z,65.76
2017-12-08T09:27:27.560Z,65.46
2017-12-08T09:29:57.898Z,63.93
2017-12-08T09:32:28.920Z,64.32
2017-12-08T09:37:32.175Z,64.11
2017-12-08T09:40:02.596Z,63.99
2017-12-08T09:42:34.230Z,64.51
2017-12-08T09:45:07.505Z,65.58
2017-12-08T09:47:38.663Z,65.43
2017-12-08T09:50:09.933Z,65.52
2017-12-08T09:52:40.626Z,65.55
2017-12-08T09:55:11.073Z,64.80
2017-12-08T09:57:42.714Z,64.65
2017-12-08T10:00:16.066Z,65.01
2017-12-08T10:02:47.831Z,64.41
2017-12-08T10:05:19.975Z,65.15
2017-12-08T10:07:50.512Z,65.09
2017-12-08T10:10:22.011Z,66.37
2017-12-08T10:12:53.110Z,67.18
2017-12-08T10:15:25.098Z,67.43
2017-12-08T10:17:56.623Z,67.47
2017-12-08T10:20:27.092Z,67.07
2017-12-08T10:22:57.595Z,67.21
2017-12-08T10:25:27.950Z,67.86
2017-12-08T10:27:58.281Z,67.38
2017-12-08T10:30:33.363Z,66.60
2017-12-08T10:33:08.836Z,66.25
2017-12-08T10:35:44.693Z,66.28
2017-12-08T10:38:24.102Z,67.11
2017-12-08T10:41:04.803Z,65.74
2017-12-08T10:43:37.825Z,65.96
2017-12-08T10:46:08.239Z,66.17
2017-12-08T10:48:38.578Z,65.80
2017-12-08T10:51:09.453Z,66.08
2017-12-08T10:53:39.822Z,66.36
2017-12-08T10:56:10.432Z,65.55
2017-12-08T10:58:41.147Z,65.77
2017-12-08T11:01:11.719Z,66.37
2017-12-08T11:03:42.978Z,66.82
2017-12-08T11:06:15.552Z,66.50
2017-12-08T11:08:47.696Z,66.04
2017-12-08T11:11:24.081Z,66.67
2017-12-08T11:13:58.817Z,67.03
2017-12-08T11:16:31.860Z,67.78
2017-12-08T11:19:04.488Z,68.89
2017-12-08T11:21:36.817Z,69.04
2017-12-08T11:24:09.049Z,69.62
2017-12-08T11:26:39.480Z,69.64
2017-12-08T11:29:12.038Z,69.54
2017-12-08T11:31:43.203Z,68.85
2017-12-08T11:37:00.501Z,69.30
2017-12-08T11:39:32.547Z,69.27
2017-12-08T11:42:06.956Z,69.27
2017-12-08T11:44:56.648Z,69.55
2017-12-08T11:47:34.255Z,70.10
2017-12-08T11:50:06.966Z,70.71
2017-12-08T11:52:41.097Z,70.87
2017-12-08T11:55:14.402Z,71.83
2017-12-08T11:57:45.674Z,72.21
2017-12-08T12:00:25.660Z,72.19
2017-12-08T12:02:58.933Z,72.13
2017-12-08T12:05:37.164Z,73.12
2017-12-08T12:08:13.991Z,73.50
2017-12-08T12:10:48.273Z,73.62
2017-12-08T12:13:19.443Z,72.77
2017-12-08T12:15:51.057Z,73.95
2017-12-08T12:18:23.955Z,73.88
2017-12-08T12:20:55.063Z,73.59
2017-12-08T12:23:25.520Z,74.12
2017-12-08T12:26:06.912Z,74.18
2017-12-08T12:28:45.440Z,74.41
2017-12-08T12:31:19.510Z,75.11
2017-12-08T12:33:52.315Z,74.97
2017-12-08T12:36:23.274Z,75.02
2017-12-08T12:38:53.984Z,75.50
2017-12-08T12:41:26.439Z,75.51
2017-12-08T12:43:56.957Z,75.62
2017-12-08T12:46:27.935Z,74.74
2017-12-08T12:48:59.652Z,75.30
2017-12-08T12:51:30.498Z,75.22
2017-12-08T12:54:05.449Z,75.58
2017-12-08T12:56:38.106Z,75.42
2017-12-08T12:59:08.932Z,75.69
2017-12-08T13:01:39.566Z,76.08
2017-12-08T13:04:10.089Z,76.52
2017-12-08T13:06:41.199Z,76.58
2017-12-08T13:09:12.278Z,76.50
2017-12-08T13:11:46.607Z,75.90
2017-12-08T13:14:17.569Z,75.51
2017-12-08T13:16:59.224Z,75.25
2017-12-08T13:19:29.970Z,75.52
2017-12-08T13:22:00.697Z,75.55
2017-12-08T13:24:33.955Z,75.21
2017-12-08T13:27:05.578Z,75.05
2017-12-08T13:29:36.865Z,74.98
2017-12-08T13:35:00.018Z,74.93
2017-12-08T13:37:31.521Z,74.40
2017-12-08T13:40:02.711Z,74.39
2017-12-08T13:42:33.885Z,74.31
2017-12-08T13:45:06.626Z,74.31
2017-12-08T13:47:37.496Z,73.59
2017-12-08T13:50:07.887Z,73.60
2017-12-08T13:52:38.370Z,73.33
2017-12-08T13:57:23.264Z,73.62
2017-12-08T13:59:53.586Z,73.11
2017-12-08T14:02:24.410Z,72.90
2017-12-08T14:04:54.849Z,73.48
2017-12-08T14:07:25.380Z,73.63
2017-12-08T14:09:57.458Z,74.05
2017-12-08T14:12:28.295Z,73.39
2017-12-08T14:14:58.855Z,73.53
2017-12-08T14:17:39.857Z,73.79
2017-12-08T14:20:18.247Z,73.48
2017-12-08T14:22:53.799Z,72.97
2017-12-08T14:25:27.239Z,72.76
2017-12-08T14:27:58.717Z,71.81
2017-12-08T14:30:29.749Z,72.61
2017-12-08T14:33:02.143Z,72.77
2017-12-08T14:35:34.041Z,72.22
2017-12-08T14:38:06.020Z,72.75
2017-12-08T14:40:36.558Z,72.11
2017-12-08T14:43:09.192Z,72.46
2017-12-08T14:45:45.364Z,72.43
2017-12-08T14:48:22.611Z,73.01
2017-12-08T14:50:55.811Z,72.97
2017-12-08T14:53:27.883Z,72.11
2017-12-08T14:55:59.221Z,71.66
2017-12-08T14:58:29.842Z,72.40
2017-12-08T15:01:03.687Z,72.10
2017-12-08T15:03:35.621Z,71.52
2017-12-08T15:06:06.511Z,71.95
2017-12-08T15:08:38.077Z,72.44
2017-12-08T15:11:10.616Z,72.30
2017-12-08T15:13:43.019Z,72.00
2017-12-08T15:16:19.028Z,72.00
2017-12-08T15:18:51.091Z,70.76
2017-12-08T15:21:26.791Z,71.30
2017-12-08T15:23:58.691Z,71.86
2017-12-08T15:26:34.057Z,72.44
2017-12-08T15:29:07.685Z,72.22
2017-12-08T15:31:38.615Z,71.64
2017-12-08T15:34:09.534Z,72.13
2017-12-08T15:36:41.268Z,71.96
2017-12-08T15:39:15.768Z,71.63
2017-12-08T15:41:46.468Z,71.55
2017-12-08T15:44:17.882Z,71.47
2017-12-08T15:46:50.125Z,71.03
2017-12-08T15:49:25.313Z,70.91
2017-12-08T15:51:55.913Z,71.93
2017-12-08T15:54:29.456Z,71.06
2017-12-08T15:57:01.620Z,70.60
2017-12-08T15:59:33.135Z,70.82
2017-12-08T16:02:03.784Z,70.49
2017-12-08T16:04:37.684Z,71.73
2017-12-08T16:07:16.139Z,72.22
2017-12-08T16:12:23.272Z,71.20
2017-12-08T16:14:54.562Z,70.57
2017-12-08T16:17:26.304Z,70.82
2017-12-08T16:19:58.082Z,70.74
2017-12-08T16:22:29.212Z,70.51
2017-12-08T16:24:59.731Z,70.87
2017-12-08T16:27:33.760Z,70.55
2017-12-08T16:30:07.873Z,69.43
2017-12-08T16:32:39.144Z,68.71
2017-12-08T16:35:11.706Z,69.15
2017-12-08T16:37:44.019Z,69.36
2017-12-08T16:40:19.120Z,68.97
2017-12-08T16:42:52.174Z,68.99
2017-12-08T16:45:23.672Z,69.19
2017-12-08T16:47:54.796Z,68.49
2017-12-08T16:50:27.582Z,68.17
2017-12-08T16:53:01.289Z,68.30
2017-12-08T16:55:41.543Z,67.87
2017-12-08T16:58:15.050Z,67.93
2017-12-08T17:00:48.221Z,67.94
2017-12-08T17:03:21.740Z,67.61
2017-12-08T17:05:52.759Z,67.43
2017-12-08T17:08:24.030Z,67.77
2017-12-08T17:10:59.824Z,67.59
2017-12-08T17:13:34.249Z,68.23
2017-12-08T17:16:09.356Z,67.86
2017-12-08T17:18:46.768Z,67.63
2017-12-08T17:21:23.692Z,67.68
2017-12-08T17:23:57.312Z,67.96
2017-12-08T17:26:29.738Z,68.04
2017-12-08T17:29:08.682Z,68.02
2017-12-08T17:31:40.278Z,68.20
2017-12-08T17:34:12.448Z,68.61
2017-12-08T17:36:43.691Z,69.11
2017-12-08T17:51:04.342Z,68.61
2017-12-08T17:53:35.336Z,68.33
2017-12-08T17:56:06.179Z,68.24
2017-12-08T17:58:39.831Z,68.05
2017-12-08T18:01:12.308Z,67.82
2017-12-08T18:03:45.550Z,67.36
2017-12-08T18:06:25.966Z,67.12
2017-12-08T18:08:56.814Z,67.04
2017-12-08T18:11:30.898Z,67.02
2017-12-08T18:14:05.698Z,67.53
2017-12-08T18:16:40.912Z,67.34
2017-12-08T18:19:28.168Z,67.58
2017-12-08T18:22:00.016Z,67.64
2017-12-08T18:24:46.517Z,67.57
2017-12-08T18:27:18.888Z,67.58
2017-12-08T18:29:52.910Z,67.62
2017-12-08T18:32:25.413Z,67.27
2017-12-08T18:35:00.047Z,67.57
2017-12-08T18:37:33.525Z,67.22
2017-12-08T18:40:04.496Z,66.95
2017-12-08T18:42:36.863Z,66.74
2017-12-08T18:45:08.226Z,66.67
2017-12-08T18:47:38.915Z,66.66
2017-12-08T18:50:12.187Z,65.96
2017-12-08T18:52:45.202Z,65.97
2017-12-08T18:55:17.814Z,66.09
2017-12-08T18:57:53.446Z,65.48
2017-12-08T19:00:27.315Z,66.11
2017-12-08T19:02:58.533Z,66.04
2017-12-08T19:05:35.673Z,65.85
2017-12-08T19:08:07.878Z,65.60
2017-12-08T19:10:39.999Z,65.03
2017-12-08T19:13:11.170Z,65.50
2017-12-08T19:15:42.327Z,65.16
2017-12-08T19:18:13.822Z,64.79
2017-12-08T19:20:46.516Z,64.94
2017-12-08T19:23:17.732Z,64.42
2017-12-08T19:25:48.797Z,64.89
2017-12-08T19:28:21.010Z,64.96
2017-12-08T19:30:52.923Z,64.48
2017-12-08T19:33:24.897Z,64.14
2017-12-08T19:35:58.315Z,64.43
2017-12-08T19:38:37.981Z,64.10
2017-12-08T19:41:16.285Z,63.84
2017-12-08T19:43:52.555Z,63.86
2017-12-08T19:46:24.528Z,63.36
2017-12-08T19:48:57.244Z,63.23
2017-12-08T19:51:31.875Z,62.92
2017-12-08T19:54:03.812Z,62.37
2017-12-08T19:56:35.383Z,62.78
2017-12-08T19:59:06.187Z,62.13
2017-12-08T20:01:39.704Z,62.39
2017-12-08T20:04:11.916Z,62.05
2017-12-08T20:06:44.115Z,62.14
2017-12-08T20:09:19.432Z,62.98
2017-12-08T20:14:42.410Z,64.94
2017-12-08T20:17:15.774Z,66.22
2017-12-08T20:19:48.321Z,68.55
2017-12-08T20:22:19.588Z,70.25
2017-12-08T20:24:50.384Z,71.76
2017-12-08T20:27:21.066Z,71.80
2017-12-08T20:29:51.845Z,73.10
2017-12-08T20:32:22.615Z,74.30
2017-12-08T20:34:54.164Z,74.92
2017-12-08T20:37:26.173Z,75.62
2017-12-08T20:39:57.833Z,76.16
2017-12-08T20:42:30.074Z,76.02
2017-12-08T20:45:02.829Z,76.82
2017-12-08T20:47:52.331Z,77.02
2017-12-08T20:50:28.977Z,76.63
2017-12-08T20:53:00.116Z,76.42
2017-12-08T20:55:36.669Z,77.33
2017-12-08T20:58:21.239Z,77.19
2017-12-08T21:00:55.292Z,77.61
2017-12-08T21:03:28.073Z,78.23
2017-12-08T21:06:00.111Z,78.45
2017-12-08T21:08:35.079Z,79.21
2017-12-08T21:11:12.017Z,79.29
2017-12-08T21:13:47.879Z,79.50
2017-12-08T21:16:42.044Z,80.11
2017-12-08T21:19:20.606Z,80.82
2017-12-08T21:21:54.078Z,80.64
2017-12-08T21:24:36.153Z,80.92
2017-12-08T21:27:15.886Z,80.07
2017-12-08T21:29:48.786Z,79.07
2017-12-08T21:35:24.012Z,79.43
2017-12-08T21:49:51.398Z,79.31
2017-12-08T21:52:26.777Z,79.63
2017-12-08T21:55:00.580Z,79.42
2017-12-08T21:57:42.876Z,79.24
2017-12-08T22:00:21.870Z,79.76
2017-12-08T22:02:55.094Z,79.94
2017-12-08T22:05:26.561Z,79.51
2017-12-08T22:08:08.656Z,79.65
2017-12-08T22:10:41.635Z,79.32
2017-12-08T22:13:19.981Z,79.26
2017-12-08T22:15:56.851Z,79.33
2017-12-08T22:18:28.256Z,79.28
2017-12-08T22:21:00.570Z,78.94
2017-12-08T22:23:33.247Z,78.41
2017-12-08T22:26:08.034Z,78.20
2017-12-08T22:28:39.822Z,77.70
2017-12-08T22:31:13.368Z,77.42
2017-12-08T22:33:47.652Z,77.01
2017-12-08T22:36:20.981Z,77.71
2017-12-08T22:38:52.491Z,78.09
2017-12-08T22:41:25.764Z,78.08
2017-12-08T22:43:59.653Z,78.12
2017-12-08T22:46:30.569Z,78.30
2017-12-08T22:49:02.261Z,78.19
2017-12-08T22:51:33.097Z,77.71
2017-12-08T22:54:05.247Z,77.78
2017-12-08T23:09:41.315Z,76.30
2017-12-08T23:12:15.495Z,75.23
2017-12-08T23:14:51.298Z,75.14
2017-12-08T23:17:23.103Z,75.01
2017-12-08T23:19:54.440Z,74.95
2017-12-08T23:22:26.237Z,74.95
2017-12-08T23:24:59.331Z,74.83
2017-12-08T23:27:31.224Z,75.19
2017-12-08T23:30:04.583Z,75.40
2017-12-08T23:33:05.030Z,75.02
2017-12-08T23:35:41.071Z,74.98
2017-12-08T23:38:12.721Z,75.08
2017-12-08T23:40:45.880Z,74.87
2017-12-08T23:43:19.916Z,74.92
2017-12-08T23:45:52.784Z,74.57
2017-12-08T23:48:23.754Z,74.20
2017-12-08T23:50:55.934Z,74.03
2017-12-08T23:53:27.335Z,72.91
2017-12-08T23:55:58.363Z,72.77
2017-12-08T23:58:29.941Z,72.66
